createdAt,value
2022-09-26T00:01:17.256Z,13.90
2022-09-26T00:04:22.884Z,13.90
2022-09-26T00:07:25.876Z,13.89
2022-09-26T00:10:28.221Z,13.88
2022-09-26T00:13:33.452Z,13.85
2022-09-26T00:16:36.158Z,13.86
2022-09-26T00:19:38.295Z,13.85
2022-09-26T00:22:40.573Z,13.84
2022-09-26T00:25:49.249Z,13.82
2022-09-26T00:28:52.066Z,13.81
2022-09-26T00:31:54.135Z,13.82
2022-09-26T00:34:56.441Z,13.82
2022-09-26T00:37:58.466Z,13.83
2022-09-26T00:41:01.285Z,13.83
2022-09-26T00:44:03.750Z,13.82
2022-09-26T00:47:07.771Z,13.82
2022-09-26T00:50:13.393Z,13.82
2022-09-26T00:53:18.112Z,13.80
2022-09-26T00:56:23.514Z,13.80
2022-09-26T00:59:31.005Z,13.81
2022-09-26T01:02:34.070Z,13.80
2022-09-26T01:05:37.802Z,13.80
2022-09-26T01:08:41.583Z,13.80
2022-09-26T01:11:44.731Z,13.80
2022-09-26T01:14:47.548Z,13.77
2022-09-26T01:17:50.479Z,13.77
2022-09-26T01:21:12.834Z,13.76
2022-09-26T01:24:21.345Z,13.77
2022-09-26T01:27:27.786Z,13.75
2022-09-26T01:30:41.953Z,13.78
2022-09-26T01:33:52.120Z,13.78
2022-09-26T01:36:54.376Z,13.78
2022-09-26T01:39:56.341Z,13.80
2022-09-26T01:43:00.084Z,13.80
2022-09-26T01:46:20.610Z,13.81
2022-09-26T01:49:26.031Z,13.80
2022-09-26T01:52:40.297Z,13.81
2022-09-26T01:55:45.260Z,13.82
2022-09-26T01:58:51.155Z,13.83
2022-09-26T02:01:57.127Z,13.84
2022-09-26T02:05:12.496Z,13.86
2022-09-26T02:08:21.188Z,13.87
2022-09-26T02:11:24.763Z,13.85
2022-09-26T02:14:31.940Z,13.87
2022-09-26T02:17:38.246Z,13.85
2022-09-26T02:20:43.267Z,13.84
2022-09-26T02:23:46.820Z,13.82
2022-09-26T02:26:49.907Z,13.82
2022-09-26T02:29:54.495Z,13.82
2022-09-26T02:32:56.890Z,13.80
2022-09-26T02:35:59.094Z,13.82
2022-09-26T02:39:01.669Z,13.81
2022-09-26T02:42:25.291Z,13.78
2022-09-26T02:45:46.365Z,13.70
2022-09-26T02:49:04.220Z,13.66
2022-09-26T02:52:12.256Z,13.59
2022-09-26T02:55:26.742Z,13.60
2022-09-26T02:58:36.834Z,13.58
2022-09-26T03:01:54.547Z,13.53
2022-09-26T03:05:08.891Z,13.51
2022-09-26T03:08:17.611Z,13.47
2022-09-26T03:11:22.070Z,13.43
2022-09-26T03:14:24.115Z,13.39
2022-09-26T03:17:27.012Z,13.35
2022-09-26T03:20:29.249Z,13.33
2022-09-26T03:23:31.777Z,13.30
2022-09-26T03:26:36.137Z,13.29
2022-09-26T03:29:39.091Z,13.28
2022-09-26T03:32:42.596Z,13.29
2022-09-26T03:35:45.164Z,13.29
2022-09-26T03:38:47.181Z,13.31
2022-09-26T03:41:51.439Z,13.26
2022-09-26T03:44:53.712Z,13.28
2022-09-26T03:47:57.846Z,13.29
2022-09-26T03:51:07.682Z,13.29
2022-09-26T03:54:13.431Z,13.30
2022-09-26T03:57:16.409Z,13.32
2022-09-26T04:00:19.529Z,13.32
2022-09-26T04:03:21.967Z,13.33
2022-09-26T04:06:24.604Z,13.34
2022-09-26T04:09:27.255Z,13.34
2022-09-26T04:12:29.868Z,13.34
2022-09-26T04:15:32.380Z,13.33
2022-09-26T04:18:36.380Z,13.34
2022-09-26T04:21:40.122Z,13.35
2022-09-26T04:24:42.397Z,13.35
2022-09-26T04:27:44.657Z,13.36
2022-09-26T04:30:46.686Z,13.38
2022-09-26T04:33:49.678Z,13.36
2022-09-26T04:36:52.577Z,13.38
2022-09-26T04:39:55.938Z,13.38
2022-09-26T04:42:58.901Z,13.37
2022-09-26T04:46:01.860Z,13.36
2022-09-26T04:49:04.236Z,13.36
2022-09-26T04:52:06.564Z,13.38
2022-09-26T04:55:08.828Z,13.40
2022-09-26T04:58:11.816Z,13.43
2022-09-26T05:01:14.995Z,13.44
2022-09-26T05:04:17.779Z,13.40
2022-09-26T05:07:20.083Z,13.32
2022-09-26T05:10:22.434Z,13.34
2022-09-26T05:13:25.002Z,13.35
2022-09-26T05:16:28.484Z,13.37
2022-09-26T05:19:31.577Z,13.39
2022-09-26T05:22:38.670Z,13.42
2022-09-26T05:26:00.236Z,13.45
2022-09-26T05:29:08.417Z,13.44
2022-09-26T05:32:20.751Z,13.46
2022-09-26T05:35:23.775Z,13.45
2022-09-26T05:38:26.162Z,13.47
2022-09-26T05:41:31.214Z,13.45
2022-09-26T05:44:33.541Z,13.44
2022-09-26T05:47:37.323Z,13.46
2022-09-26T05:50:43.478Z,13.47
2022-09-26T05:53:47.009Z,13.48
2022-09-26T05:56:49.377Z,13.45
2022-09-26T05:59:53.887Z,13.46
2022-09-26T06:03:03.740Z,13.45
2022-09-26T06:06:08.007Z,13.45
2022-09-26T06:09:10.119Z,13.44
2022-09-26T06:12:15.178Z,13.47
2022-09-26T06:15:17.383Z,13.50
2022-09-26T06:18:19.735Z,13.53
2022-09-26T06:21:22.750Z,13.56
2022-09-26T06:24:25.197Z,13.59
2022-09-26T06:27:28.645Z,13.61
2022-09-26T06:30:31.549Z,13.61
2022-09-26T06:33:34.721Z,13.62
2022-09-26T06:36:37.165Z,13.66
2022-09-26T06:39:39.173Z,13.65
2022-09-26T06:42:41.705Z,13.59
2022-09-26T06:45:45.964Z,13.62
2022-09-26T06:48:49.748Z,13.62
2022-09-26T06:51:52.019Z,13.65
2022-09-26T06:54:55.353Z,13.63
2022-09-26T06:57:58.556Z,13.67
2022-09-26T07:01:01.342Z,13.70
2022-09-26T07:04:04.774Z,13.71
2022-09-26T07:07:07.217Z,13.70
2022-09-26T07:10:10.936Z,13.75
2022-09-26T07:13:13.761Z,13.78
2022-09-26T07:16:15.840Z,13.78
2022-09-26T07:19:19.004Z,13.80
2022-09-26T07:22:21.970Z,13.75
2022-09-26T07:25:24.979Z,13.76
2022-09-26T07:28:28.325Z,13.83
2022-09-26T07:31:31.036Z,13.90
2022-09-26T07:34:33.736Z,13.92
2022-09-26T07:37:36.859Z,13.97
2022-09-26T07:40:39.652Z,13.91
2022-09-26T07:44:34.663Z,13.96
2022-09-26T07:47:23.403Z,13.95
2022-09-26T07:50:26.091Z,13.95
2022-09-26T07:53:30.243Z,14.02
2022-09-26T07:56:34.486Z,14.12
2022-09-26T07:59:38.505Z,14.15
2022-09-26T08:02:42.753Z,14.14
2022-09-26T08:05:45.498Z,14.16
2022-09-26T08:08:48.239Z,14.18
2022-09-26T08:11:55.829Z,14.21
2022-09-26T08:14:57.874Z,14.21
2022-09-26T08:18:00.276Z,14.23
2022-09-26T08:21:03.484Z,14.29
2022-09-26T08:24:06.645Z,14.37
2022-09-26T08:27:09.922Z,14.46
2022-09-26T08:30:12.387Z,14.53
2022-09-26T08:33:15.016Z,14.61
2022-09-26T08:36:17.696Z,14.67
2022-09-26T08:39:21.301Z,14.74
2022-09-26T08:42:28.729Z,14.85
2022-09-26T08:45:56.753Z,15.03
2022-09-26T08:49:04.533Z,15.35
2022-09-26T08:52:16.542Z,15.57
2022-09-26T08:55:37.333Z,15.80
2022-09-26T08:58:44.533Z,15.98
2022-09-26T09:01:47.796Z,16.03
2022-09-26T09:04:54.010Z,16.08
2022-09-26T09:07:58.627Z,16.11
2022-09-26T09:11:06.952Z,16.21
2022-09-26T09:14:20.030Z,16.30
2022-09-26T09:17:31.500Z,16.36
2022-09-26T09:20:45.281Z,16.42
2022-09-26T09:23:48.060Z,16.54
2022-09-26T09:30:37.491Z,17.23
2022-09-26T09:33:46.280Z,18.10
2022-09-26T09:36:51.098Z,18.31
2022-09-26T09:39:54.337Z,18.81
2022-09-26T09:43:07.811Z,19.58
2022-09-26T09:46:17.200Z,20.35
2022-09-26T09:49:21.542Z,20.78
2022-09-26T09:52:59.471Z,20.90
2022-09-26T09:56:09.725Z,21.03
2022-09-26T09:59:30.687Z,21.01
2022-09-26T10:02:33.320Z,21.04
2022-09-26T10:05:56.103Z,20.94
2022-09-26T10:09:35.779Z,20.78
2022-09-26T10:12:33.050Z,20.68
2022-09-26T10:15:45.178Z,20.47
2022-09-26T10:19:03.415Z,20.40
2022-09-26T10:22:10.574Z,20.15
2022-09-26T10:25:18.491Z,19.98
2022-09-26T10:28:30.155Z,19.84
2022-09-26T10:31:42.655Z,19.76
2022-09-26T10:35:01.982Z,19.88
2022-09-26T10:38:08.393Z,19.65
2022-09-26T10:41:21.771Z,19.55
2022-09-26T10:44:34.935Z,19.33
2022-09-26T10:47:41.392Z,19.33
2022-09-26T10:50:52.279Z,19.29
2022-09-26T10:54:03.973Z,19.29
2022-09-26T10:57:09.586Z,19.27
2022-09-26T11:00:37.081Z,19.19
2022-09-26T11:03:42.828Z,19.16
2022-09-26T11:06:49.714Z,18.93
2022-09-26T11:09:53.091Z,18.75
2022-09-26T11:13:16.210Z,18.50
2022-09-26T11:16:22.230Z,18.52
2022-09-26T11:19:44.480Z,18.49
2022-09-26T11:22:52.077Z,18.47
2022-09-26T11:26:06.925Z,18.37
2022-09-26T11:29:11.791Z,18.36
2022-09-26T11:32:43.178Z,18.39
2022-09-26T11:35:52.801Z,18.44
2022-09-26T11:39:02.335Z,18.48
2022-09-26T11:42:17.075Z,18.25
2022-09-26T11:45:39.254Z,18.45
2022-09-26T11:49:01.966Z,18.50
2022-09-26T11:52:34.507Z,18.61
2022-09-26T11:55:54.337Z,18.71
2022-09-26T11:58:59.210Z,18.73
2022-09-26T12:02:18.810Z,18.81
2022-09-26T12:05:30.773Z,19.09
2022-09-26T12:08:51.781Z,19.39
2022-09-26T12:11:57.325Z,19.55
2022-09-26T12:15:11.476Z,20.01
2022-09-26T12:18:29.580Z,20.43
2022-09-26T12:21:40.505Z,20.93
2022-09-26T12:24:48.841Z,20.99
2022-09-26T12:27:58.817Z,21.26
2022-09-26T12:31:18.669Z,21.27
2022-09-26T12:34:28.919Z,21.17
2022-09-26T12:37:52.785Z,21.10
2022-09-26T12:41:17.021Z,21.02
2022-09-26T12:44:37.373Z,21.32
2022-09-26T12:47:52.383Z,21.82
2022-09-26T12:51:09.918Z,22.19
2022-09-26T12:54:38.709Z,22.42
2022-09-26T12:57:51.324Z,22.50
2022-09-26T13:01:21.466Z,22.82
2022-09-26T13:04:46.911Z,22.99
2022-09-26T13:07:58.959Z,22.90
2022-09-26T13:11:01.244Z,22.53
2022-09-26T13:14:12.060Z,22.16
2022-09-26T13:17:33.387Z,21.97
2022-09-26T13:20:41.162Z,21.90
2022-09-26T13:23:58.647Z,22.01
2022-09-26T13:27:21.162Z,22.05
2022-09-26T13:30:28.239Z,21.91
2022-09-26T13:33:41.588Z,21.70
2022-09-26T13:36:44.395Z,21.46
2022-09-26T13:39:58.665Z,21.26
2022-09-26T13:43:08.113Z,21.11
2022-09-26T13:46:16.450Z,20.83
2022-09-26T13:49:31.067Z,20.58
2022-09-26T13:52:52.415Z,20.35
2022-09-26T13:56:14.368Z,20.21
2022-09-26T13:59:18.111Z,20.00
2022-09-26T14:02:24.496Z,19.93
2022-09-26T14:05:28.478Z,19.90
2022-09-26T14:08:50.484Z,19.88
2022-09-26T14:12:13.539Z,19.91
2022-09-26T14:15:18.133Z,19.91
2022-09-26T14:18:29.971Z,19.89
2022-09-26T14:21:35.021Z,19.88
2022-09-26T14:24:38.428Z,19.85
2022-09-26T14:27:41.613Z,19.78
2022-09-26T14:31:04.196Z,19.75
2022-09-26T14:34:11.802Z,19.69
2022-09-26T14:37:26.437Z,19.63
2022-09-26T14:40:31.470Z,19.56
2022-09-26T14:43:35.555Z,19.49
2022-09-26T14:46:41.373Z,19.44
2022-09-26T14:49:51.943Z,19.41
2022-09-26T14:52:55.786Z,19.38
2022-09-26T14:56:01.038Z,19.34
2022-09-26T14:59:22.331Z,19.28
2022-09-26T15:02:28.729Z,19.25
2022-09-26T15:05:31.811Z,19.16
2022-09-26T15:08:39.215Z,19.12
2022-09-26T15:11:45.588Z,19.05
2022-09-26T15:14:53.983Z,18.98
2022-09-26T15:18:02.132Z,18.96
2022-09-26T15:21:10.188Z,18.90
2022-09-26T15:24:33.372Z,18.85
2022-09-26T15:27:35.881Z,18.80
2022-09-26T15:30:40.110Z,18.73
2022-09-26T15:33:42.452Z,18.66
2022-09-26T15:36:45.723Z,18.57
2022-09-26T15:39:48.073Z,18.51
2022-09-26T15:43:00.762Z,18.47
2022-09-26T15:46:09.091Z,18.38
2022-09-26T15:49:14.166Z,18.32
2022-09-26T15:52:16.900Z,18.23
2022-09-26T15:55:21.528Z,18.16
2022-09-26T15:58:40.336Z,18.10
2022-09-26T16:01:44.569Z,18.01
2022-09-26T16:04:49.434Z,17.94
2022-09-26T16:07:52.809Z,17.89
2022-09-26T16:10:57.063Z,17.84
2022-09-26T16:14:00.197Z,17.76
2022-09-26T16:17:11.079Z,17.70
2022-09-26T16:20:13.191Z,17.62
2022-09-26T16:23:26.189Z,17.54
2022-09-26T16:26:37.222Z,17.46
2022-09-26T16:29:42.758Z,17.39
2022-09-26T16:32:47.673Z,17.31
2022-09-26T16:35:51.546Z,17.23
2022-09-26T16:39:01.222Z,17.14
2022-09-26T16:42:07.874Z,17.07
2022-09-26T16:45:14.071Z,16.98
2022-09-26T16:48:35.731Z,16.89
2022-09-26T16:51:41.031Z,16.81
2022-09-26T16:54:43.707Z,16.73
2022-09-26T16:57:54.119Z,16.66
2022-09-26T17:01:15.332Z,16.59
2022-09-26T17:04:18.355Z,16.53
2022-09-26T17:07:23.606Z,16.46
2022-09-26T17:10:26.574Z,16.40
2022-09-26T17:13:31.116Z,16.32
2022-09-26T17:16:34.383Z,16.27
2022-09-26T17:19:39.491Z,16.26
2022-09-26T17:22:41.779Z,16.23
2022-09-26T17:25:57.693Z,16.19
2022-09-26T17:29:02.559Z,16.17
2022-09-26T17:32:09.883Z,16.17
2022-09-26T17:35:15.023Z,16.17
2022-09-26T17:38:19.487Z,16.15
2022-09-26T17:41:23.062Z,16.14
2022-09-26T17:44:25.544Z,16.10
2022-09-26T17:47:27.655Z,16.07
2022-09-26T17:50:31.555Z,16.05
2022-09-26T17:53:39.391Z,16.02
2022-09-26T17:56:42.117Z,15.96
2022-09-26T17:59:44.329Z,15.91
2022-09-26T18:02:57.198Z,15.88
2022-09-26T18:06:01.247Z,15.84
2022-09-26T18:09:10.002Z,15.76
2022-09-26T18:12:15.081Z,15.71
2022-09-26T18:15:21.184Z,15.67
2022-09-26T18:18:24.835Z,15.62
2022-09-26T18:21:26.870Z,15.54
2022-09-26T18:24:29.624Z,15.50
2022-09-26T18:27:33.122Z,15.46
2022-09-26T18:30:37.854Z,15.45
2022-09-26T18:33:42.549Z,15.44
2022-09-26T18:36:45.339Z,15.45
2022-09-26T18:39:52.104Z,15.43
2022-09-26T18:42:57.812Z,15.39
2022-09-26T18:46:01.393Z,15.35
2022-09-26T18:49:06.336Z,15.29
2022-09-26T18:52:15.713Z,15.24
2022-09-26T18:55:41.743Z,15.24
2022-09-26T18:58:43.907Z,15.24
2022-09-26T19:01:46.249Z,15.26
2022-09-26T19:04:48.944Z,15.26
2022-09-26T19:07:54.149Z,15.24
2022-09-26T19:10:56.323Z,15.25
2022-09-26T19:14:01.444Z,15.25
2022-09-26T19:17:03.825Z,15.24
2022-09-26T19:20:06.159Z,15.23
2022-09-26T19:23:10.617Z,15.22
2022-09-26T19:26:17.750Z,15.19
2022-09-26T19:29:27.163Z,15.16
2022-09-26T19:32:29.489Z,15.10
2022-09-26T19:35:36.103Z,15.04
2022-09-26T19:38:41.182Z,15.03
2022-09-26T19:41:43.260Z,15.02
2022-09-26T19:44:45.661Z,15.02
2022-09-26T19:47:50.085Z,14.98
2022-09-26T19:50:52.658Z,14.99
2022-09-26T19:53:54.740Z,14.98
2022-09-26T19:56:59.718Z,14.85
2022-09-26T20:00:09.010Z,14.92
2022-09-26T20:03:40.114Z,14.93
2022-09-26T20:06:44.497Z,14.91
2022-09-26T20:09:47.205Z,14.89
2022-09-26T20:12:50.841Z,14.89
2022-09-26T20:16:00.316Z,14.89
2022-09-26T20:19:03.324Z,14.88
2022-09-26T20:22:15.848Z,14.87
2022-09-26T20:25:32.116Z,14.85
2022-09-26T20:28:38.138Z,14.82
2022-09-26T20:31:50.643Z,14.83
2022-09-26T20:34:56.438Z,14.82
2022-09-26T20:38:03.518Z,14.80
2022-09-26T20:41:15.180Z,14.75
2022-09-26T20:44:23.096Z,14.68
2022-09-26T20:47:27.626Z,14.64
2022-09-26T20:50:38.005Z,14.61
2022-09-26T20:53:40.865Z,14.58
2022-09-26T20:56:43.264Z,14.58
2022-09-26T20:59:46.376Z,14.56
2022-09-26T21:02:51.663Z,14.54
2022-09-26T21:05:54.033Z,14.52
2022-09-26T21:08:56.044Z,14.51
2022-09-26T21:11:58.292Z,14.51
2022-09-26T21:15:00.350Z,14.50
2022-09-26T21:18:02.814Z,14.50
2022-09-26T21:21:06.913Z,14.48
2022-09-26T21:24:14.390Z,14.47
2022-09-26T21:27:16.440Z,14.46
2022-09-26T21:30:18.788Z,14.43
2022-09-26T21:33:22.069Z,14.45
2022-09-26T21:36:25.916Z,14.43
2022-09-26T21:39:28.148Z,14.43
2022-09-26T21:42:30.508Z,14.42
2022-09-26T21:45:35.540Z,14.41
2022-09-26T21:48:38.492Z,14.42
2022-09-26T21:51:54.003Z,14.41
2022-09-26T21:55:00.215Z,14.41
2022-09-26T21:58:10.701Z,14.41
2022-09-26T22:01:15.455Z,14.42
2022-09-26T22:04:22.532Z,14.41
2022-09-26T22:07:28.203Z,14.42
2022-09-26T22:10:31.329Z,14.42
2022-09-26T22:13:35.079Z,14.44
2022-09-26T22:16:37.583Z,14.43
2022-09-26T22:19:39.939Z,14.44
2022-09-26T22:22:42.477Z,14.43
2022-09-26T22:25:48.542Z,14.44
2022-09-26T22:28:53.503Z,14.44
2022-09-26T22:31:57.960Z,14.44
2022-09-26T22:35:00.215Z,14.42
2022-09-26T22:38:02.199Z,14.39
2022-09-26T22:41:05.542Z,14.39
2022-09-26T22:44:07.555Z,14.38
2022-09-26T22:47:09.832Z,14.38
2022-09-26T22:50:11.828Z,14.37
2022-09-26T22:53:14.120Z,14.38
2022-09-26T22:56:16.187Z,14.35
2022-09-26T22:59:18.455Z,14.34
2022-09-26T23:02:20.807Z,14.37
2022-09-26T23:05:23.107Z,14.37
2022-09-26T23:08:25.328Z,14.35
2022-09-26T23:11:28.077Z,14.34
2022-09-26T23:14:30.074Z,14.34
2022-09-26T23:17:33.191Z,14.32
2022-09-26T23:20:37.810Z,14.27
2022-09-26T23:23:41.940Z,14.24
2022-09-26T23:26:43.955Z,14.19
2022-09-26T23:29:46.278Z,14.15
2022-09-26T23:32:48.378Z,14.12
2022-09-26T23:35:56.521Z,14.10
2022-09-26T23:38:58.569Z,14.07
2022-09-26T23:42:00.853Z,14.05
2022-09-26T23:45:02.883Z,14.04
2022-09-26T23:48:05.219Z,14.01
2022-09-26T23:51:07.494Z,13.99
2022-09-26T23:54:09.826Z,13.98
2022-09-26T23:57:11.821Z,13.96
